createdAt,value
2022-11-18T00:00:41.360Z,95.49
2022-11-18T00:01:41.326Z,95.49
2022-11-18T00:02:41.405Z,95.59
2022-11-18T00:03:41.299Z,95.59
2022-11-18T00:04:41.332Z,95.70
2022-11-18T00:05:41.280Z,95.70
2022-11-18T00:06:41.277Z,95.80
2022-11-18T00:07:41.327Z,95.80
2022-11-18T00:08:41.309Z,95.90
2022-11-18T00:09:41.284Z,95.90
2022-11-18T00:10:41.381Z,95.90
2022-11-18T00:11:41.240Z,96.00
2022-11-18T00:12:41.238Z,96.00
2022-11-18T00:13:41.206Z,95.96
2022-11-18T00:14:41.178Z,96.06
2022-11-18T00:15:41.215Z,96.17
2022-11-18T00:16:41.169Z,96.17
2022-11-18T00:17:41.159Z,96.27
2022-11-18T00:18:41.169Z,96.27
2022-11-18T00:19:41.160Z,96.27
2022-11-18T00:20:41.135Z,96.37
2022-11-18T00:21:41.128Z,96.37
2022-11-18T00:22:41.127Z,96.37
2022-11-18T00:23:41.116Z,96.33
2022-11-18T00:24:41.099Z,96.43
2022-11-18T00:25:41.068Z,96.43
2022-11-18T00:26:41.061Z,96.43
2022-11-18T00:27:41.057Z,96.43
2022-11-18T00:28:41.056Z,96.43
2022-11-18T00:29:41.198Z,96.43
2022-11-18T00:30:41.131Z,96.43
2022-11-18T00:31:41.008Z,96.43
2022-11-18T00:32:40.986Z,96.43
2022-11-18T00:33:40.991Z,96.43
2022-11-18T00:34:40.986Z,96.43
2022-11-18T00:35:40.988Z,96.43
2022-11-18T00:36:40.956Z,96.43
2022-11-18T00:37:40.994Z,96.43
2022-11-18T00:38:40.926Z,96.43
2022-11-18T00:39:40.917Z,96.43
2022-11-18T00:40:40.905Z,96.43
2022-11-18T00:41:40.922Z,96.43
2022-11-18T00:42:40.884Z,96.43
2022-11-18T00:43:40.898Z,96.43
2022-11-18T00:44:40.865Z,96.53
2022-11-18T00:45:40.876Z,96.53
2022-11-18T00:46:40.844Z,96.48
2022-11-18T00:47:40.836Z,96.48
2022-11-18T00:48:40.857Z,96.48
2022-11-18T00:49:40.846Z,96.48
2022-11-18T00:50:40.803Z,96.48
2022-11-18T00:51:40.787Z,96.48
2022-11-18T00:52:40.786Z,96.48
2022-11-18T00:53:40.765Z,96.48
2022-11-18T00:54:40.778Z,96.48
2022-11-18T00:55:40.782Z,96.48
2022-11-18T00:56:40.736Z,96.48
2022-11-18T00:57:40.768Z,96.59
2022-11-18T00:58:40.713Z,96.48
2022-11-18T00:59:40.704Z,96.48
2022-11-18T01:00:40.725Z,96.48
2022-11-18T01:01:40.786Z,96.48
2022-11-18T01:02:40.710Z,96.48
2022-11-18T01:03:40.674Z,96.44
2022-11-18T01:04:40.647Z,96.44
2022-11-18T01:05:40.644Z,96.44
2022-11-18T01:06:40.645Z,96.44
2022-11-18T01:07:40.711Z,96.44
2022-11-18T01:08:40.605Z,96.34
2022-11-18T01:09:40.642Z,96.34
2022-11-18T01:10:40.586Z,96.34
2022-11-18T01:11:40.614Z,96.34
2022-11-18T01:12:40.637Z,96.34
2022-11-18T01:13:40.565Z,96.34
2022-11-18T01:14:40.576Z,96.34
2022-11-18T01:15:40.534Z,96.34
2022-11-18T01:16:40.533Z,96.34
2022-11-18T01:17:40.572Z,96.34
2022-11-18T01:18:40.501Z,96.34
2022-11-18T01:19:40.521Z,96.34
2022-11-18T01:20:40.486Z,96.23
2022-11-18T01:21:40.513Z,96.23
2022-11-18T01:22:40.495Z,96.23
2022-11-18T01:23:40.497Z,96.14
2022-11-18T01:24:40.485Z,96.14
2022-11-18T01:25:40.435Z,96.18
2022-11-18T01:26:40.413Z,96.18
2022-11-18T01:27:40.416Z,96.18
2022-11-18T01:28:40.444Z,96.28
2022-11-18T01:29:40.453Z,96.28
2022-11-18T01:30:40.371Z,96.28
2022-11-18T01:31:55.561Z,96.39
2022-11-18T01:32:41.353Z,96.34
2022-11-18T01:33:40.344Z,96.44
2022-11-18T01:34:40.355Z,96.44
2022-11-18T01:35:40.323Z,96.44
2022-11-18T01:36:40.312Z,96.44
2022-11-18T01:37:40.303Z,96.55
2022-11-18T01:38:40.272Z,96.55
2022-11-18T01:39:40.322Z,96.55
2022-11-18T01:40:40.307Z,96.55
2022-11-18T01:41:40.263Z,96.55
2022-11-18T01:42:40.243Z,96.55
2022-11-18T01:43:40.273Z,96.55
2022-11-18T01:44:40.223Z,96.55
2022-11-18T01:45:40.241Z,96.55
2022-11-18T01:46:40.200Z,96.65
2022-11-18T01:47:40.239Z,96.65
2022-11-18T01:48:40.193Z,96.69
2022-11-18T01:49:40.173Z,96.69
2022-11-18T01:50:40.163Z,96.69
2022-11-18T01:51:40.152Z,96.75
2022-11-18T01:52:40.134Z,96.75
2022-11-18T01:53:40.172Z,96.75
2022-11-18T01:54:40.113Z,96.85
2022-11-18T01:55:40.102Z,96.85
2022-11-18T01:56:40.102Z,96.85
2022-11-18T01:57:40.245Z,96.85
2022-11-18T01:58:40.102Z,96.85
2022-11-18T01:59:40.062Z,96.95
2022-11-18T02:00:40.051Z,96.95
2022-11-18T02:01:40.110Z,96.85
2022-11-18T02:02:40.072Z,96.85
2022-11-18T02:03:40.110Z,96.95
2022-11-18T02:04:40.011Z,96.95
2022-11-18T02:05:40.011Z,96.95
2022-11-18T02:06:39.982Z,96.95
2022-11-18T02:07:40.073Z,97.06
2022-11-18T02:08:40.070Z,97.06
2022-11-18T02:09:39.967Z,97.06
2022-11-18T02:10:39.960Z,97.06
2022-11-18T02:11:39.984Z,97.16
2022-11-18T02:12:39.921Z,97.16
2022-11-18T02:13:39.952Z,97.16
2022-11-18T02:14:39.911Z,97.16
2022-11-18T02:15:39.900Z,97.16
2022-11-18T02:16:39.888Z,97.16
2022-11-18T02:17:39.876Z,97.16
2022-11-18T02:18:39.902Z,97.16
2022-11-18T02:19:39.851Z,97.16
2022-11-18T02:20:39.839Z,97.16
2022-11-18T02:21:39.837Z,97.16
2022-11-18T02:22:39.840Z,97.16
2022-11-18T02:23:39.839Z,97.16
2022-11-18T02:24:39.798Z,97.16
2022-11-18T02:25:39.820Z,97.16
2022-11-18T02:26:39.778Z,97.06
2022-11-18T02:27:39.759Z,97.06
2022-11-18T02:28:39.750Z,97.06
2022-11-18T02:30:49.292Z,96.95
2022-11-18T02:31:49.262Z,96.95
2022-11-18T02:32:49.280Z,96.95
2022-11-18T02:33:49.243Z,96.95
2022-11-18T02:34:49.225Z,96.95
2022-11-18T02:35:49.218Z,96.95
2022-11-18T02:36:49.216Z,97.06
2022-11-18T02:37:49.232Z,97.06
2022-11-18T02:38:49.224Z,97.06
2022-11-18T02:39:49.164Z,97.06
2022-11-18T02:40:49.151Z,97.06
2022-11-18T02:41:49.150Z,97.06
2022-11-18T02:42:49.145Z,97.16
2022-11-18T02:43:49.152Z,97.16
2022-11-18T02:44:49.121Z,97.16
2022-11-18T02:45:49.101Z,97.16
2022-11-18T02:46:49.101Z,97.16
2022-11-18T02:47:49.099Z,97.16
2022-11-18T02:48:49.145Z,97.27
2022-11-18T02:49:49.071Z,97.27
2022-11-18T02:50:49.051Z,97.27
2022-11-18T02:51:49.033Z,97.27
2022-11-18T02:52:49.030Z,97.27
2022-11-18T02:53:49.040Z,97.27
2022-11-18T02:54:49.011Z,97.16
2022-11-18T02:55:48.998Z,97.27
2022-11-18T02:56:48.991Z,97.27
2022-11-18T02:57:49.000Z,97.16
2022-11-18T02:58:48.969Z,97.16
2022-11-18T02:59:48.973Z,97.27
2022-11-18T03:00:48.941Z,97.16
2022-11-18T03:01:48.988Z,97.20
2022-11-18T03:02:48.927Z,97.20
2022-11-18T03:03:48.902Z,97.31
2022-11-18T03:04:48.941Z,97.27
2022-11-18T03:05:48.881Z,97.27
2022-11-18T03:06:48.878Z,97.20
2022-11-18T03:07:48.859Z,97.20
2022-11-18T03:08:48.882Z,97.20
2022-11-18T03:09:48.858Z,97.31
2022-11-18T03:10:48.857Z,97.31
2022-11-18T03:11:48.851Z,97.31
2022-11-18T03:12:48.810Z,97.31
2022-11-18T03:13:48.800Z,97.31
2022-11-18T03:14:48.816Z,97.31
2022-11-18T03:15:48.772Z,97.31
2022-11-18T03:16:48.825Z,97.41
2022-11-18T03:17:48.769Z,97.41
2022-11-18T03:18:48.769Z,97.41
2022-11-18T03:19:48.749Z,97.52
2022-11-18T03:20:48.749Z,97.52
2022-11-18T03:21:48.736Z,97.52
2022-11-18T03:22:48.719Z,97.52
2022-11-18T03:23:48.688Z,97.52
2022-11-18T03:24:48.681Z,97.52
2022-11-18T03:25:48.668Z,97.62
2022-11-18T03:26:48.730Z,97.62
2022-11-18T03:27:48.647Z,97.62
2022-11-18T03:28:48.640Z,97.72
2022-11-18T03:29:48.646Z,97.82
2022-11-18T03:30:48.616Z,97.82
2022-11-18T03:31:48.697Z,97.78
2022-11-18T03:32:48.597Z,97.78
2022-11-18T03:33:48.579Z,97.88
2022-11-18T03:34:48.576Z,97.99
2022-11-18T03:35:48.563Z,97.99
2022-11-18T03:36:51.801Z,97.99
2022-11-18T03:37:48.598Z,97.99
2022-11-18T03:38:48.581Z,98.08
2022-11-18T03:39:48.528Z,98.08
2022-11-18T03:40:48.511Z,98.08
2022-11-18T03:41:48.501Z,98.08
2022-11-18T03:42:48.545Z,98.19
2022-11-18T03:43:48.538Z,98.19
2022-11-18T03:44:52.386Z,98.19
2022-11-18T03:45:48.487Z,98.19
2022-11-18T03:46:48.448Z,98.29
2022-11-18T03:47:48.428Z,98.29
2022-11-18T03:48:48.455Z,98.29
2022-11-18T03:49:48.447Z,98.29
2022-11-18T03:50:48.400Z,98.35
2022-11-18T03:51:48.379Z,98.35
2022-11-18T03:52:48.408Z,98.25
2022-11-18T03:53:48.397Z,98.35
2022-11-18T03:54:48.357Z,98.35
2022-11-18T03:55:48.340Z,98.35
2022-11-18T03:56:48.365Z,98.35
2022-11-18T03:57:48.351Z,98.35
2022-11-18T03:58:48.336Z,98.35
2022-11-18T03:59:48.327Z,98.35
2022-11-18T04:00:48.297Z,98.35
2022-11-18T04:01:48.330Z,98.35
2022-11-18T04:02:48.277Z,98.35
2022-11-18T04:03:48.298Z,98.35
2022-11-18T04:04:48.265Z,98.35
2022-11-18T04:05:48.294Z,98.35
2022-11-18T04:06:48.227Z,98.45
2022-11-18T04:07:48.207Z,98.45
2022-11-18T04:08:48.207Z,98.55
2022-11-18T04:09:48.225Z,99.02
2022-11-18T04:10:48.175Z,99.08
2022-11-18T04:11:48.202Z,99.28
2022-11-18T04:12:48.164Z,99.28
2022-11-18T04:13:48.145Z,99.28
2022-11-18T04:14:48.170Z,99.28
2022-11-18T04:15:48.155Z,99.28
2022-11-18T04:16:48.136Z,99.28
2022-11-18T04:17:48.106Z,99.38
2022-11-18T04:18:48.125Z,99.38
2022-11-18T04:19:48.084Z,99.44
2022-11-18T04:20:48.099Z,99.34
2022-11-18T04:21:48.064Z,99.34
2022-11-18T04:22:48.055Z,99.34
2022-11-18T04:23:48.084Z,99.34
2022-11-18T04:24:48.036Z,99.34
2022-11-18T04:25:48.017Z,99.34
2022-11-18T04:26:48.034Z,99.24
2022-11-18T04:27:47.994Z,99.13
2022-11-18T04:28:48.013Z,98.93
2022-11-18T04:29:47.996Z,98.83
2022-11-18T04:30:48.005Z,98.77
2022-11-18T04:31:47.964Z,98.67
2022-11-18T04:32:47.941Z,98.57
2022-11-18T04:33:47.948Z,98.57
2022-11-18T04:34:47.928Z,98.46
2022-11-18T04:35:47.936Z,98.36
2022-11-18T04:36:47.934Z,98.36
2022-11-18T04:37:47.885Z,98.25
2022-11-18T04:38:47.876Z,98.25
2022-11-18T04:39:47.892Z,98.25
2022-11-18T04:40:47.899Z,98.16
2022-11-18T04:41:47.845Z,98.16
2022-11-18T04:42:47.836Z,98.16
2022-11-18T04:43:47.822Z,98.16
2022-11-18T04:44:47.812Z,98.16
2022-11-18T04:45:47.815Z,98.16
2022-11-18T04:46:47.795Z,98.16
2022-11-18T04:47:47.806Z,98.16
2022-11-18T04:48:47.795Z,98.16
2022-11-18T04:49:47.765Z,98.25
2022-11-18T04:50:47.795Z,98.36
2022-11-18T04:51:47.754Z,98.46
2022-11-18T04:52:47.759Z,98.42
2022-11-18T04:53:47.716Z,98.72
2022-11-18T04:54:47.719Z,98.83
2022-11-18T04:55:47.685Z,98.62
2022-11-18T04:56:49.625Z,98.52
2022-11-18T04:57:47.692Z,98.42
2022-11-18T04:58:47.685Z,98.42
2022-11-18T04:59:47.650Z,98.42
2022-11-18T05:00:47.670Z,98.52
2022-11-18T05:01:47.710Z,98.62
2022-11-18T05:02:47.647Z,98.62
2022-11-18T05:03:50.577Z,98.52
2022-11-18T05:04:47.603Z,98.52
2022-11-18T05:05:47.587Z,98.52
2022-11-18T05:06:47.617Z,98.52
2022-11-18T05:07:47.648Z,98.52
2022-11-18T05:08:47.552Z,98.52
2022-11-18T05:09:47.559Z,98.62
2022-11-18T05:10:47.540Z,98.52
2022-11-18T05:11:47.522Z,98.52
2022-11-18T05:12:47.568Z,98.52
2022-11-18T05:13:47.494Z,98.52
2022-11-18T05:14:50.487Z,98.52
2022-11-18T05:15:47.483Z,98.52
2022-11-18T05:16:47.473Z,98.62
2022-11-18T05:17:47.462Z,98.68
2022-11-18T05:18:47.473Z,98.78
2022-11-18T05:19:47.444Z,98.78
2022-11-18T05:20:47.423Z,98.78
2022-11-18T05:21:47.414Z,98.88
2022-11-18T05:22:47.432Z,98.94
2022-11-18T05:23:47.434Z,99.04
2022-11-18T05:24:47.449Z,98.94
2022-11-18T05:25:47.371Z,98.99
2022-11-18T05:26:47.365Z,98.88
2022-11-18T05:27:47.374Z,98.78
2022-11-18T05:28:47.562Z,98.58
2022-11-18T05:29:47.341Z,98.52
2022-11-18T05:30:47.322Z,98.42
2022-11-18T05:31:47.301Z,98.32
2022-11-18T05:32:47.298Z,98.21
2022-11-18T05:33:47.343Z,98.21
2022-11-18T05:34:47.314Z,98.21
2022-11-18T05:35:51.094Z,98.11
2022-11-18T05:36:48.252Z,98.16
2022-11-18T05:37:47.299Z,98.05
2022-11-18T05:38:47.233Z,98.05
2022-11-18T05:39:47.221Z,97.95
2022-11-18T05:40:47.207Z,98.05
2022-11-18T05:41:47.248Z,98.05
2022-11-18T05:42:47.190Z,98.05
2022-11-18T05:43:47.170Z,98.05
2022-11-18T05:44:47.170Z,98.16
2022-11-18T05:45:47.158Z,98.25
2022-11-18T05:46:47.143Z,98.21
2022-11-18T05:47:47.162Z,98.32
2022-11-18T05:48:47.130Z,98.32
2022-11-18T05:49:47.100Z,98.42
2022-11-18T05:50:47.101Z,98.52
2022-11-18T05:51:47.109Z,98.83
2022-11-18T05:52:47.131Z,98.78
2022-11-18T05:53:47.078Z,98.88
2022-11-18T05:54:47.072Z,98.99
2022-11-18T05:55:48.609Z,99.09
2022-11-18T05:56:47.056Z,99.09
2022-11-18T05:57:47.024Z,99.25
2022-11-18T05:58:47.018Z,99.25
2022-11-18T05:59:47.006Z,99.25
2022-11-18T06:00:46.990Z,99.25
2022-11-18T06:01:47.040Z,99.15
2022-11-18T06:02:47.108Z,99.09
2022-11-18T06:03:46.979Z,99.09
2022-11-18T06:04:46.949Z,99.09
2022-11-18T06:05:46.930Z,98.99
2022-11-18T06:06:46.920Z,98.88
2022-11-18T06:07:47.012Z,98.78
2022-11-18T06:08:46.959Z,98.78
2022-11-18T06:09:46.931Z,98.68
2022-11-18T06:10:46.957Z,98.58
2022-11-18T06:11:46.867Z,98.62
2022-11-18T06:12:46.909Z,98.52
2022-11-18T06:13:46.863Z,98.42
2022-11-18T06:14:46.859Z,98.52
2022-11-18T06:15:46.849Z,98.52
2022-11-18T06:16:46.817Z,98.47
2022-11-18T06:17:46.800Z,98.58
2022-11-18T06:18:46.799Z,98.58
2022-11-18T06:19:46.790Z,98.47
2022-11-18T06:20:46.833Z,98.47
2022-11-18T06:21:46.760Z,98.47
2022-11-18T06:22:46.928Z,98.37
2022-11-18T06:23:46.750Z,98.16
2022-11-18T06:24:46.739Z,98.16
2022-11-18T06:25:46.718Z,98.16
2022-11-18T06:26:46.760Z,98.16
2022-11-18T06:27:46.698Z,98.16
2022-11-18T06:28:46.721Z,98.16
2022-11-18T06:29:46.677Z,98.00
2022-11-18T06:30:46.677Z,98.00
2022-11-18T06:31:46.664Z,98.00
2022-11-18T06:32:46.696Z,98.00
2022-11-18T06:33:46.648Z,98.00
2022-11-18T06:34:46.628Z,98.11
2022-11-18T06:35:46.609Z,98.21
2022-11-18T06:36:46.607Z,98.21
2022-11-18T06:37:46.619Z,98.21
2022-11-18T06:38:46.589Z,98.21
2022-11-18T06:39:46.568Z,98.32
2022-11-18T06:40:46.668Z,98.32
2022-11-18T06:41:46.586Z,98.32
2022-11-18T06:42:46.546Z,98.21
2022-11-18T06:43:46.525Z,98.21
2022-11-18T06:44:46.537Z,98.21
2022-11-18T06:45:46.505Z,98.21
2022-11-18T06:46:46.557Z,98.21
2022-11-18T06:47:46.485Z,98.21
2022-11-18T06:48:46.512Z,98.21
2022-11-18T06:49:46.464Z,98.21
2022-11-18T06:50:46.454Z,98.21
2022-11-18T06:51:46.437Z,98.21
2022-11-18T06:52:46.428Z,98.21
2022-11-18T06:53:46.596Z,98.11
2022-11-18T06:54:46.418Z,98.21
2022-11-18T06:55:46.399Z,98.21
2022-11-18T06:56:46.425Z,98.21
2022-11-18T06:57:46.779Z,98.21
2022-11-18T06:58:46.365Z,98.21
2022-11-18T06:59:46.362Z,98.21
2022-11-18T07:00:46.411Z,98.21
2022-11-18T07:01:46.336Z,98.21
2022-11-18T07:02:46.315Z,98.21
2022-11-18T07:03:46.347Z,98.21
2022-11-18T07:04:46.298Z,98.21
2022-11-18T07:05:46.293Z,98.21
2022-11-18T07:06:46.306Z,98.21
2022-11-18T07:07:46.395Z,98.25
2022-11-18T07:08:46.262Z,98.25
2022-11-18T07:09:46.256Z,98.25
2022-11-18T07:10:46.235Z,98.25
2022-11-18T07:11:46.268Z,98.25
2022-11-18T07:12:46.206Z,98.25
2022-11-18T07:13:46.224Z,98.25
2022-11-18T07:14:46.217Z,98.25
2022-11-18T07:15:46.185Z,98.25
2022-11-18T07:16:46.225Z,98.25
2022-11-18T07:17:46.197Z,98.25
2022-11-18T07:18:46.146Z,98.36
2022-11-18T07:19:46.136Z,98.36
2022-11-18T07:20:46.221Z,98.36
2022-11-18T07:21:46.116Z,98.36
2022-11-18T07:22:46.097Z,98.46
2022-11-18T07:23:46.093Z,98.46
2022-11-18T07:24:46.083Z,98.52
2022-11-18T07:25:46.075Z,98.62
2022-11-18T07:26:46.093Z,98.83
2022-11-18T07:27:46.078Z,98.93
2022-11-18T07:28:46.045Z,98.99
2022-11-18T07:29:46.026Z,99.19
2022-11-18T07:30:46.026Z,99.40
2022-11-18T07:31:46.003Z,99.45
2022-11-18T07:32:46.042Z,99.55
2022-11-18T07:33:46.018Z,99.66
2022-11-18T07:34:45.974Z,99.66
2022-11-18T07:35:45.962Z,99.66
2022-11-18T07:36:45.955Z,99.55
2022-11-18T07:37:45.942Z,99.55
2022-11-18T07:38:45.973Z,99.45
2022-11-18T07:39:45.944Z,99.66
2022-11-18T07:40:45.914Z,99.66
2022-11-18T07:41:45.974Z,99.45
2022-11-18T07:42:45.924Z,99.45
2022-11-18T07:43:45.892Z,99.45
2022-11-18T07:44:45.882Z,99.35
2022-11-18T07:45:45.862Z,99.25
2022-11-18T07:46:45.866Z,99.25
2022-11-18T07:47:45.890Z,99.25
2022-11-18T07:48:45.895Z,99.25
2022-11-18T07:49:45.840Z,99.15
2022-11-18T07:50:47.272Z,99.04
2022-11-18T07:51:45.802Z,98.94
2022-11-18T07:52:45.792Z,98.99
2022-11-18T07:53:45.796Z,98.88
2022-11-18T07:54:45.854Z,98.88
2022-11-18T07:55:45.762Z,98.78
2022-11-18T07:56:45.752Z,98.78
2022-11-18T07:57:45.753Z,98.78
2022-11-18T07:58:45.720Z,98.83
2022-11-18T07:59:45.734Z,98.83
2022-11-18T08:00:46.223Z,98.83
2022-11-18T08:01:45.749Z,98.74
2022-11-18T08:02:45.706Z,98.74
2022-11-18T08:03:45.681Z,98.74
2022-11-18T08:04:45.703Z,98.63
2022-11-18T08:05:45.653Z,98.53
2022-11-18T08:06:45.699Z,98.53
2022-11-18T08:07:45.724Z,98.53
2022-11-18T08:08:45.657Z,98.43
2022-11-18T08:09:45.637Z,98.43
2022-11-18T08:10:45.618Z,98.33
2022-11-18T08:11:45.592Z,98.33
2022-11-18T08:12:45.557Z,98.22
2022-11-18T08:13:45.561Z,98.22
2022-11-18T08:14:45.540Z,98.22
2022-11-18T08:15:45.586Z,98.22
2022-11-18T08:16:45.590Z,98.12
2022-11-18T08:17:45.595Z,98.12
2022-11-18T08:18:45.530Z,98.02
2022-11-18T08:19:45.501Z,98.02
2022-11-18T08:20:45.510Z,97.91
2022-11-18T08:21:45.529Z,97.91
2022-11-18T08:22:45.478Z,97.91
2022-11-18T08:23:45.481Z,97.81
2022-11-18T08:24:45.990Z,97.71
2022-11-18T08:25:45.430Z,97.61
2022-11-18T08:26:45.421Z,97.61
2022-11-18T08:27:45.441Z,97.50
2022-11-18T08:28:45.503Z,97.50
2022-11-18T08:29:45.458Z,97.50
2022-11-18T08:30:52.406Z,97.40
2022-11-18T08:31:45.356Z,97.40
2022-11-18T08:32:45.337Z,97.40
2022-11-18T08:33:45.373Z,97.50
2022-11-18T08:34:45.317Z,97.50
2022-11-18T08:35:45.336Z,97.50
2022-11-18T08:36:45.297Z,97.50
2022-11-18T08:37:45.645Z,97.50
2022-11-18T08:38:45.268Z,97.50
2022-11-18T08:39:45.256Z,97.50
2022-11-18T08:40:45.248Z,97.50
2022-11-18T08:41:45.244Z,97.50
2022-11-18T08:42:45.234Z,97.61
2022-11-18T08:43:46.917Z,97.61
2022-11-18T08:44:45.205Z,97.61
2022-11-18T08:45:45.197Z,97.61
2022-11-18T08:46:45.175Z,97.71
2022-11-18T08:47:45.184Z,97.71
2022-11-18T08:48:45.164Z,97.71
2022-11-18T08:49:45.235Z,97.71
2022-11-18T08:50:45.138Z,97.61
2022-11-18T08:51:45.132Z,97.61
2022-11-18T08:52:45.114Z,97.61
2022-11-18T08:53:45.144Z,97.61
2022-11-18T08:54:45.095Z,97.61
2022-11-18T08:55:45.094Z,97.50
2022-11-18T08:56:45.105Z,97.50
2022-11-18T08:57:45.079Z,97.50
2022-11-18T08:58:45.053Z,97.50
2022-11-18T08:59:45.110Z,97.50
2022-11-18T09:00:45.032Z,97.40
2022-11-18T09:01:45.078Z,97.40
2022-11-18T09:02:45.013Z,97.30
2022-11-18T09:03:45.005Z,97.30
2022-11-18T09:04:44.983Z,97.40
2022-11-18T09:05:45.014Z,97.40
2022-11-18T09:06:44.971Z,97.40
2022-11-18T09:07:44.983Z,97.30
2022-11-18T09:08:44.946Z,97.30
2022-11-18T09:09:44.933Z,97.20
2022-11-18T09:10:44.924Z,97.20
2022-11-18T09:11:44.934Z,97.20
2022-11-18T09:12:44.923Z,97.20
2022-11-18T09:14:26.008Z,97.20
2022-11-18T09:15:45.875Z,97.20
2022-11-18T09:16:44.862Z,97.20
2022-11-18T09:17:44.850Z,97.09
2022-11-18T09:18:44.835Z,97.09
2022-11-18T09:19:47.823Z,97.09
2022-11-18T09:20:44.812Z,96.99
2022-11-18T09:21:44.841Z,96.99
2022-11-18T09:22:44.791Z,96.99
2022-11-18T09:23:44.791Z,97.09
2022-11-18T09:24:44.764Z,97.09
2022-11-18T09:25:44.752Z,97.20
2022-11-18T09:26:44.743Z,97.20
2022-11-18T09:27:44.773Z,97.20
2022-11-18T09:28:44.721Z,97.15
2022-11-18T09:29:44.751Z,97.25
2022-11-18T09:30:44.720Z,97.25
2022-11-18T09:31:44.691Z,97.25
2022-11-18T09:32:44.702Z,97.36
2022-11-18T09:33:44.673Z,97.36
2022-11-18T09:34:44.760Z,97.36
2022-11-18T09:35:44.702Z,97.36
2022-11-18T09:36:44.633Z,97.15
2022-11-18T09:37:44.623Z,97.15
2022-11-18T09:38:49.868Z,97.25
2022-11-18T09:39:45.612Z,97.36
2022-11-18T09:40:44.602Z,97.46
2022-11-18T09:41:44.614Z,97.46
2022-11-18T09:42:44.571Z,97.56
2022-11-18T09:43:44.561Z,97.46
2022-11-18T09:44:44.548Z,97.05
2022-11-18T09:45:44.542Z,97.05
2022-11-18T09:46:44.592Z,97.05
2022-11-18T09:47:44.531Z,97.15
2022-11-18T09:48:44.530Z,96.84
2022-11-18T09:49:44.504Z,96.95
2022-11-18T09:50:51.718Z,96.95
2022-11-18T09:51:45.480Z,96.95
2022-11-18T09:52:44.497Z,96.95
2022-11-18T09:53:44.451Z,96.84
2022-11-18T09:54:44.461Z,96.84
2022-11-18T09:55:44.443Z,96.74
2022-11-18T09:56:44.510Z,96.84
2022-11-18T09:57:44.415Z,96.95
2022-11-18T09:58:44.451Z,96.95
2022-11-18T09:59:44.392Z,97.05
2022-11-18T10:00:44.392Z,96.95
2022-11-18T10:01:44.454Z,96.84
2022-11-18T10:02:44.355Z,96.95
2022-11-18T10:03:44.351Z,96.84
2022-11-18T10:04:44.372Z,96.80
2022-11-18T10:05:44.325Z,96.74
2022-11-18T10:06:44.360Z,96.59
2022-11-18T10:07:44.343Z,96.54
2022-11-18T10:08:44.302Z,96.33
2022-11-18T10:09:44.285Z,96.39
2022-11-18T10:10:44.321Z,96.39
2022-11-18T10:11:49.006Z,96.39
2022-11-18T10:12:45.249Z,96.49
2022-11-18T10:13:44.239Z,96.59
2022-11-18T10:14:44.266Z,96.45
2022-11-18T10:15:44.222Z,96.25
2022-11-18T10:16:44.250Z,96.04
2022-11-18T10:17:45.571Z,96.04
2022-11-18T10:18:59.786Z,95.26
2022-11-18T10:19:45.173Z,94.96
2022-11-18T10:20:44.163Z,94.85
2022-11-18T10:21:44.153Z,94.85
2022-11-18T10:22:44.142Z,95.02
2022-11-18T10:23:44.162Z,94.34
2022-11-18T10:24:44.111Z,93.52
2022-11-18T10:25:44.112Z,93.43
2022-11-18T10:26:44.092Z,93.12
2022-11-18T10:27:44.120Z,93.22
2022-11-18T10:28:44.081Z,93.22
2022-11-18T10:29:44.133Z,93.01
2022-11-18T10:30:44.051Z,93.12
2022-11-18T10:31:44.044Z,93.22
2022-11-18T10:32:44.040Z,93.43
2022-11-18T10:33:44.033Z,93.52
2022-11-18T10:34:44.002Z,93.43
2022-11-18T10:35:44.034Z,93.32
2022-11-18T10:36:43.982Z,93.43
2022-11-18T10:38:06.746Z,93.63
2022-11-18T10:38:49.735Z,93.84
2022-11-18T10:39:44.959Z,93.89
2022-11-18T10:40:44.211Z,93.89
2022-11-18T10:41:43.938Z,93.69
2022-11-18T10:42:43.928Z,93.69
2022-11-18T10:43:43.911Z,93.69
2022-11-18T10:44:43.893Z,93.79
2022-11-18T10:45:43.893Z,93.89
2022-11-18T10:46:43.900Z,93.89
2022-11-18T10:47:43.860Z,93.99
2022-11-18T10:48:43.866Z,93.38
2022-11-18T10:49:43.862Z,93.38
2022-11-18T10:50:43.830Z,93.18
2022-11-18T10:51:43.822Z,92.97
2022-11-18T10:52:43.840Z,92.83
2022-11-18T10:53:43.800Z,92.56
2022-11-18T10:54:43.781Z,92.56
2022-11-18T10:55:43.787Z,92.46
2022-11-18T10:56:43.759Z,92.46
2022-11-18T10:57:43.789Z,92.52
2022-11-18T10:58:44.209Z,92.42
2022-11-18T10:59:43.739Z,92.01
2022-11-18T11:00:43.739Z,91.70
2022-11-18T11:01:43.791Z,91.54
2022-11-18T11:02:43.709Z,91.33
2022-11-18T11:03:43.689Z,91.44
2022-11-18T11:04:43.720Z,91.50
2022-11-18T11:05:43.670Z,91.60
2022-11-18T11:06:43.678Z,91.60
2022-11-18T11:07:43.793Z,91.29
2022-11-18T11:08:43.639Z,90.88
2022-11-18T11:09:43.768Z,90.37
2022-11-18T11:10:45.435Z,90.47
2022-11-18T11:11:44.600Z,90.78
2022-11-18T11:12:43.591Z,90.99
2022-11-18T11:13:43.608Z,90.88
2022-11-18T11:14:43.580Z,90.37
2022-11-18T11:15:43.559Z,89.86
2022-11-18T11:16:43.626Z,89.65
2022-11-18T11:17:43.622Z,89.25
2022-11-18T11:18:43.536Z,89.25
2022-11-18T11:19:43.508Z,89.56
2022-11-18T11:20:43.509Z,89.61
2022-11-18T11:21:43.486Z,89.41
2022-11-18T11:22:43.558Z,89.31
2022-11-18T11:23:43.470Z,89.00
2022-11-18T11:24:43.490Z,89.11
2022-11-18T11:28:44.420Z,89.04
2022-11-18T11:29:43.408Z,89.15
2022-11-18T11:30:43.744Z,89.20
2022-11-18T11:31:43.387Z,89.31
2022-11-18T11:32:43.382Z,89.31
2022-11-18T11:33:43.428Z,89.51
2022-11-18T11:34:43.347Z,89.61
2022-11-18T11:35:43.385Z,89.72
2022-11-18T11:36:43.328Z,89.72
2022-11-18T11:37:43.329Z,89.92
2022-11-18T11:38:43.401Z,89.92
2022-11-18T11:39:43.298Z,89.92
2022-11-18T11:40:43.287Z,89.92
2022-11-18T11:41:43.286Z,90.02
2022-11-18T11:42:43.314Z,89.72
2022-11-18T11:43:43.257Z,89.11
2022-11-18T11:44:43.248Z,88.59
2022-11-18T11:45:43.230Z,88.59
2022-11-18T11:46:43.227Z,88.70
2022-11-18T11:47:43.216Z,89.11
2022-11-18T11:48:43.238Z,89.11
2022-11-18T11:49:43.188Z,89.17
2022-11-18T11:50:43.208Z,89.37
2022-11-18T11:51:43.172Z,89.67
2022-11-18T11:52:43.157Z,89.47
2022-11-18T11:53:43.137Z,89.17
2022-11-18T11:54:43.159Z,88.85
2022-11-18T11:55:43.117Z,88.45
2022-11-18T11:56:43.161Z,87.12
2022-11-18T11:57:43.097Z,86.41
2022-11-18T11:58:43.097Z,86.61
2022-11-18T11:59:43.077Z,86.82
2022-11-18T12:00:43.070Z,86.30
2022-11-18T12:01:43.057Z,86.10
2022-11-18T12:02:43.163Z,86.20
2022-11-18T12:03:46.080Z,86.41
2022-11-18T12:04:44.027Z,86.71
2022-11-18T12:05:43.030Z,86.82
2022-11-18T12:06:43.008Z,86.91
2022-11-18T12:07:43.073Z,86.82
2022-11-18T12:08:43.017Z,87.02
2022-11-18T12:09:42.967Z,86.71
2022-11-18T12:10:42.964Z,86.24
2022-11-18T12:11:42.950Z,86.44
2022-11-18T12:12:42.957Z,86.71
2022-11-18T12:13:42.967Z,86.91
2022-11-18T12:14:42.918Z,87.23
2022-11-18T12:15:42.907Z,86.91
2022-11-18T12:16:42.885Z,86.61
2022-11-18T12:17:42.881Z,86.82
2022-11-18T12:18:42.894Z,86.91
2022-11-18T12:19:42.866Z,87.02
2022-11-18T12:20:42.867Z,87.12
2022-11-18T12:21:42.856Z,87.23
2022-11-18T12:22:42.827Z,87.23
2022-11-18T12:23:42.870Z,87.12
2022-11-18T12:24:42.812Z,87.12
2022-11-18T12:25:42.801Z,86.85
2022-11-18T12:26:42.817Z,86.85
2022-11-18T12:27:42.767Z,87.06
2022-11-18T12:28:42.771Z,87.26
2022-11-18T12:29:42.747Z,87.47
2022-11-18T12:30:42.747Z,87.67
2022-11-18T12:31:42.758Z,87.88
2022-11-18T12:32:43.126Z,87.67
2022-11-18T12:33:42.706Z,87.67
2022-11-18T12:34:42.696Z,87.63
2022-11-18T12:35:42.688Z,87.37
2022-11-18T12:36:42.683Z,87.26
2022-11-18T12:37:42.679Z,87.16
2022-11-18T12:38:42.667Z,86.85
2022-11-18T12:39:42.647Z,86.96
2022-11-18T12:40:47.216Z,87.06
2022-11-18T12:41:43.626Z,86.96
2022-11-18T12:42:42.626Z,86.96
2022-11-18T12:43:42.645Z,86.85
2022-11-18T12:44:42.626Z,86.65
2022-11-18T12:45:42.575Z,86.24
2022-11-18T12:46:45.671Z,85.94
2022-11-18T12:47:42.559Z,85.94
2022-11-18T12:48:42.567Z,86.24
2022-11-18T12:49:42.540Z,86.44
2022-11-18T12:50:42.526Z,86.65
2022-11-18T12:51:42.547Z,86.96
2022-11-18T12:52:42.504Z,87.57
2022-11-18T12:53:42.496Z,87.57
2022-11-18T12:54:42.536Z,87.53
2022-11-18T12:55:42.464Z,87.32
2022-11-18T12:56:42.457Z,87.43
2022-11-18T12:57:42.446Z,86.41